Orbital elements of COSMOS 2251 DEB
| Launched | 15 June 1993 |
| Flight ended | – |
| Launch site | Plesetsk Missile and Space Complex, Russia |
| Owner | Commonwealth of Independent States (former USSR) |
| NORAD ID | 35606 |
| Date fetched |
Epoch osculation |
Inc. [°] |
Ecc. | RA asc node [hr] |
Arg Peri. [°] |
Mean anom [°] |
Mean motion [rev/day] |
Abs. mag |
| Date fetched |
Epoch osculation |
Inc. [°] |
Ecc. | RA asc node [hr] |
Arg Peri. [°] |
Mean anom [°] |
Mean motion [rev/day] |
Abs. mag |
| 2026 May 08 17:57 | 2026 May 03 07:51:23 | 73.8072 | 0.04553 | 9.6737 | 327.8789 | 29.5290 | 13.41390 | – |
| 2026 May 07 17:58 | 2026 May 03 07:51:23 | 73.8072 | 0.04553 | 9.6737 | 327.8789 | 29.5290 | 13.41390 | – |
| 2026 May 06 17:57 | 2026 May 03 07:51:23 | 73.8072 | 0.04553 | 9.6737 | 327.8789 | 29.5290 | 13.41390 | – |
| 2026 May 05 17:57 | 2026 May 03 07:51:23 | 73.8072 | 0.04553 | 9.6737 | 327.8789 | 29.5290 | 13.41390 | – |
| 2026 May 04 17:57 | 2026 Apr 30 11:50:40 | 73.8072 | 0.04552 | 9.9749 | 332.8419 | 29.5290 | 13.41390 | – |
| 2026 May 03 17:57 | 2026 Apr 30 11:50:40 | 73.8072 | 0.04552 | 9.9749 | 332.8419 | 29.5290 | 13.41390 | – |
| 2026 May 02 17:57 | 2026 Apr 30 11:50:40 | 73.8072 | 0.04552 | 9.9749 | 332.8419 | 29.5290 | 13.41390 | – |
| 2026 May 01 17:56 | 2026 Apr 30 11:50:40 | 73.8072 | 0.04552 | 9.9749 | 332.8419 | 29.5290 | 13.41390 | – |
| 2026 Apr 30 17:56 | 2026 Apr 30 11:50:40 | 73.8072 | 0.04552 | 9.9749 | 332.8419 | 29.5290 | 13.41390 | – |
| 2026 Apr 29 17:57 | 2026 Apr 22 03:23:15 | 73.8080 | 0.04549 | 10.8626 | 347.4965 | 29.5290 | 13.41390 | – |
| 2026 Apr 28 17:56 | 2026 Apr 22 03:23:15 | 73.8080 | 0.04549 | 10.8626 | 347.4965 | 29.5290 | 13.41390 | – |
| 2026 Apr 27 17:58 | 2026 Apr 22 03:23:15 | 73.8080 | 0.04549 | 10.8626 | 347.4965 | 29.5290 | 13.41390 | – |
| 2026 Apr 26 17:58 | 2026 Apr 22 03:23:15 | 73.8080 | 0.04549 | 10.8626 | 347.4965 | 29.5290 | 13.41390 | – |
| 2026 Apr 25 17:58 | 2026 Apr 22 03:23:15 | 73.8080 | 0.04549 | 10.8626 | 347.4965 | 29.5290 | 13.41390 | – |
| 2026 Apr 24 17:59 | 2026 Apr 22 03:23:15 | 73.8080 | 0.04549 | 10.8626 | 347.4965 | 29.5290 | 13.41390 | – |
| 2026 Apr 23 17:57 | 2026 Apr 18 20:38:10 | 73.8083 | 0.04548 | 11.2113 | 353.2592 | 29.5290 | 13.41390 | – |
| 2026 Apr 22 17:57 | 2026 Apr 18 20:38:10 | 73.8083 | 0.04548 | 11.2113 | 353.2592 | 29.5290 | 13.41390 | – |
| 2026 Apr 21 17:57 | 2026 Apr 18 20:38:10 | 73.8083 | 0.04548 | 11.2113 | 353.2592 | 29.5290 | 13.41390 | – |
| 2026 Apr 20 17:57 | 2026 Apr 18 20:38:10 | 73.8083 | 0.04548 | 11.2113 | 353.2592 | 29.5290 | 13.41390 | – |
| 2026 Apr 19 17:58 | 2026 Apr 18 20:38:10 | 73.8083 | 0.04548 | 11.2113 | 353.2592 | 29.5290 | 13.41390 | – |
| 2026 Apr 18 17:56 | 2026 Apr 13 04:36:39 | 73.8086 | 0.04547 | 11.8137 | 3.2229 | 29.5290 | 13.41390 | – |
| 2026 Apr 16 17:57 | 2026 Apr 13 04:36:39 | 73.8086 | 0.04547 | 11.8137 | 3.2229 | 29.5290 | 13.41390 | – |
| 2026 Apr 14 17:57 | 2026 Apr 13 04:36:39 | 73.8086 | 0.04547 | 11.8137 | 3.2229 | 29.5290 | 13.41390 | – |
| 2026 Apr 13 17:57 | 2026 Apr 13 04:36:39 | 73.8086 | 0.04547 | 11.8137 | 3.2229 | 29.5290 | 13.41390 | – |
| 2026 Apr 12 17:57 | 2026 Apr 07 23:19:27 | 73.8089 | 0.04546 | 12.3684 | 12.4061 | 29.5290 | 13.41390 | – |
| 2026 Apr 11 17:57 | 2026 Apr 07 23:19:27 | 73.8089 | 0.04546 | 12.3684 | 12.4061 | 29.5290 | 13.41390 | – |